createdAt,value
2023-05-06T00:02:48.676Z,99289.44
2023-05-06T00:05:51.458Z,99290.53
2023-05-06T00:08:53.737Z,99295.03
2023-05-06T00:11:56.235Z,99287.16
2023-05-06T00:14:58.624Z,99290.22
2023-05-06T00:18:01.578Z,99296.44
2023-05-06T00:21:04.014Z,99290.41
2023-05-06T00:24:06.592Z,99292.72
2023-05-06T00:27:09.027Z,99285.00
2023-05-06T00:30:12.172Z,99293.84
2023-05-06T00:33:14.551Z,99295.25
2023-05-06T00:36:16.943Z,99300.03
2023-05-06T00:39:19.358Z,99299.72
2023-05-06T00:42:24.563Z,99292.44
2023-05-06T00:45:27.019Z,99295.78
2023-05-06T00:48:29.433Z,99304.34
2023-05-06T00:51:32.649Z,99301.84
2023-05-06T00:54:35.907Z,99292.16
2023-05-06T00:57:40.353Z,99290.41
2023-05-06T01:00:42.679Z,99289.16
2023-05-06T01:03:45.174Z,99290.53
2023-05-06T01:07:23.341Z,99287.56
2023-05-06T01:10:55.060Z,99293.81
2023-05-06T01:14:24.266Z,99290.50
2023-05-06T01:17:31.135Z,99284.66
2023-05-06T01:20:33.828Z,99288.28
2023-05-06T01:23:57.934Z,99283.97
2023-05-06T01:27:01.421Z,99284.31
2023-05-06T01:30:03.980Z,99290.53
2023-05-06T01:33:19.721Z,99283.94
2023-05-06T01:36:49.585Z,99280.63
2023-05-06T01:39:58.661Z,99282.41
2023-05-06T01:43:02.611Z,99269.72
2023-05-06T01:46:06.708Z,99272.38
2023-05-06T01:49:11.663Z,99266.59
2023-05-06T01:52:16.222Z,99264.56
2023-05-06T01:55:20.371Z,99263.88
2023-05-06T01:58:22.671Z,99266.81
2023-05-06T02:01:25.959Z,99269.84
2023-05-06T02:04:28.531Z,99269.84
2023-05-06T02:07:30.822Z,99268.22
2023-05-06T02:10:33.191Z,99267.53
2023-05-06T02:13:42.711Z,99279.84
2023-05-06T02:16:46.286Z,99277.78
2023-05-06T02:19:49.376Z,99274.22
2023-05-06T02:22:51.791Z,99277.91
2023-05-06T02:25:54.112Z,99274.00
2023-05-06T02:28:56.618Z,99273.00
2023-05-06T02:31:59.110Z,99272.53
2023-05-06T02:35:01.587Z,99273.44
2023-05-06T02:38:04.432Z,99273.56
2023-05-06T02:41:06.763Z,99274.00
2023-05-06T02:44:09.511Z,99279.13
2023-05-06T02:47:11.825Z,99281.56
2023-05-06T02:50:14.291Z,99279.59
2023-05-06T02:53:16.645Z,99292.81
2023-05-06T02:56:18.977Z,99284.91
2023-05-06T02:59:22.149Z,99286.69
2023-05-06T03:02:24.688Z,99285.69
2023-05-06T03:05:27.166Z,99288.88
2023-05-06T03:08:29.533Z,99292.69
2023-05-06T03:11:33.195Z,99291.03
2023-05-06T03:14:39.597Z,99291.34
2023-05-06T03:17:42.125Z,99288.25
2023-05-06T03:20:45.401Z,99280.22
2023-05-06T03:23:47.736Z,99274.34
2023-05-06T03:26:50.849Z,99270.22
2023-05-06T03:29:53.268Z,99270.13
2023-05-06T03:33:01.178Z,99268.66
2023-05-06T03:36:06.947Z,99266.72
2023-05-06T03:39:10.524Z,99256.25
2023-05-06T03:42:14.305Z,99251.53
2023-05-06T03:45:16.905Z,99255.53
2023-05-06T03:48:20.786Z,99248.41
2023-05-06T03:51:24.197Z,99246.03
2023-05-06T03:54:27.073Z,99253.53
2023-05-06T03:57:29.642Z,99254.97
2023-05-06T04:00:32.246Z,99256.50
2023-05-06T04:03:34.847Z,99259.13
2023-05-06T04:06:37.847Z,99267.38
2023-05-06T04:09:40.492Z,99266.09
2023-05-06T04:12:46.296Z,99266.78
2023-05-06T04:15:53.628Z,99270.09
2023-05-06T04:19:01.977Z,99270.41
2023-05-06T04:22:05.719Z,99278.81
2023-05-06T04:25:09.401Z,99290.59
2023-05-06T04:28:13.455Z,99280.19
2023-05-06T04:31:16.576Z,99278.81
2023-05-06T04:34:21.950Z,99287.97
2023-05-06T04:37:24.594Z,99289.78
2023-05-06T04:40:36.708Z,99283.31
2023-05-06T04:43:39.658Z,99293.53
2023-05-06T04:46:48.571Z,99304.28
2023-05-06T04:49:51.900Z,99295.88
2023-05-06T04:52:54.655Z,99294.84
2023-05-06T04:55:57.874Z,99293.19
2023-05-06T04:59:00.507Z,99295.88
2023-05-06T05:02:04.061Z,99302.78
2023-05-06T05:05:07.289Z,99292.53
2023-05-06T05:08:13.285Z,99298.19
2023-05-06T05:11:16.507Z,99300.34
2023-05-06T05:14:18.884Z,99297.47
2023-05-06T05:17:21.653Z,99304.16
2023-05-06T05:20:25.713Z,99304.44
2023-05-06T05:23:28.009Z,99302.94
2023-05-06T05:26:30.423Z,99307.44
2023-05-06T05:29:34.925Z,99311.97
2023-05-06T05:32:40.539Z,99311.25
2023-05-06T05:35:42.868Z,99317.53
2023-05-06T05:38:45.558Z,99313.00
2023-05-06T05:41:47.842Z,99308.69
2023-05-06T05:44:50.207Z,99309.13
2023-05-06T05:47:54.130Z,99306.63
2023-05-06T05:50:57.813Z,99317.63
2023-05-06T05:54:00.639Z,99311.88
2023-05-06T05:57:03.717Z,99308.38
2023-05-06T06:00:07.728Z,99306.03
2023-05-06T06:03:19.331Z,99303.28
2023-05-06T06:06:21.773Z,99307.78
2023-05-06T06:09:24.895Z,99304.84
2023-05-06T06:12:28.250Z,99305.13
2023-05-06T06:15:31.645Z,99300.00
2023-05-06T06:18:34.037Z,99309.34
2023-05-06T06:21:36.829Z,99306.69
2023-05-06T06:24:39.389Z,99293.72
2023-05-06T06:27:41.665Z,99297.81
2023-05-06T06:30:44.199Z,99297.06
2023-05-06T06:33:47.012Z,99305.31
2023-05-06T06:36:49.247Z,99299.94
2023-05-06T06:39:51.532Z,99296.94
2023-05-06T06:42:53.797Z,99292.22
2023-05-06T06:46:14.354Z,99295.69
2023-05-06T06:49:16.699Z,99296.09
2023-05-06T06:52:19.025Z,99285.97
2023-05-06T06:55:21.673Z,99282.25
2023-05-06T06:58:24.126Z,99274.94
2023-05-06T07:01:26.536Z,99277.31
2023-05-06T07:04:29.035Z,99272.25
2023-05-06T07:07:31.348Z,99274.03
2023-05-06T07:10:33.671Z,99272.84
2023-05-06T07:13:36.356Z,99272.50
2023-05-06T07:16:38.699Z,99275.16
2023-05-06T07:19:41.008Z,99274.13
2023-05-06T07:22:44.378Z,99278.13
2023-05-06T07:25:46.707Z,99271.47
2023-05-06T07:28:48.975Z,99280.94
2023-05-06T07:31:51.282Z,99269.19
2023-05-06T07:34:53.700Z,99277.06
2023-05-06T07:37:55.962Z,99276.88
2023-05-06T07:40:58.274Z,99268.78
2023-05-06T07:44:00.861Z,99281.25
2023-05-06T07:47:03.767Z,99273.69
2023-05-06T07:50:06.978Z,99275.47
2023-05-06T07:53:09.246Z,99270.53
2023-05-06T07:56:11.622Z,99268.81
2023-05-06T07:59:14.454Z,99266.78
2023-05-06T08:02:17.086Z,99262.75
2023-05-06T08:05:19.475Z,99264.09
2023-05-06T08:08:23.271Z,99268.41
2023-05-06T08:11:25.724Z,99272.91
2023-05-06T08:14:28.069Z,99278.31
2023-05-06T08:17:30.400Z,99276.44
2023-05-06T08:20:32.887Z,99288.81
2023-05-06T08:23:35.145Z,99288.91
2023-05-06T08:26:37.459Z,99288.28
2023-05-06T08:29:39.829Z,99290.16
2023-05-06T08:32:42.166Z,99286.25
2023-05-06T08:35:45.516Z,99287.63
2023-05-06T08:38:50.770Z,99288.44
2023-05-06T08:41:56.563Z,99289.34
2023-05-06T08:44:59.923Z,99291.41
2023-05-06T08:48:02.412Z,99281.38
2023-05-06T08:51:05.427Z,99272.75
2023-05-06T08:54:08.585Z,99270.16
2023-05-06T08:57:14.596Z,99269.56
2023-05-06T09:00:17.643Z,99267.38
2023-05-06T09:03:20.069Z,99262.41
2023-05-06T09:06:23.580Z,99260.28
2023-05-06T09:09:26.787Z,99267.41
2023-05-06T09:12:29.731Z,99256.03
2023-05-06T09:15:42.251Z,99259.94
2023-05-06T09:18:44.567Z,99255.03
2023-05-06T09:21:48.731Z,99250.38
2023-05-06T09:24:56.592Z,99252.94
2023-05-06T09:28:09.590Z,99249.63
2023-05-06T09:31:14.887Z,99247.13
2023-05-06T09:34:18.134Z,99248.06
2023-05-06T09:37:21.125Z,99242.78
2023-05-06T09:40:24.486Z,99243.78
2023-05-06T09:43:26.864Z,99234.38
2023-05-06T09:46:29.259Z,99229.75
2023-05-06T09:49:32.064Z,99228.09
2023-05-06T09:52:34.321Z,99229.03
2023-05-06T09:55:37.639Z,99219.81
2023-05-06T09:58:40.429Z,99226.03
2023-05-06T10:01:42.910Z,99225.00
2023-05-06T10:04:48.598Z,99213.81
2023-05-06T10:07:53.452Z,99211.94
2023-05-06T10:10:56.826Z,99206.34
2023-05-06T10:14:00.454Z,99196.00
2023-05-06T10:17:07.801Z,99200.22
2023-05-06T10:20:14.110Z,99188.31
2023-05-06T10:23:26.290Z,99185.97
2023-05-06T10:26:31.108Z,99181.84
2023-05-06T10:29:36.285Z,99184.38
2023-05-06T10:32:43.077Z,99172.41
2023-05-06T10:35:53.020Z,99167.91
2023-05-06T10:39:00.421Z,99172.34
2023-05-06T10:42:02.699Z,99187.44
2023-05-06T10:45:06.594Z,99172.16
2023-05-06T10:48:13.205Z,99176.94
2023-05-06T10:51:27.269Z,99161.25
2023-05-06T10:54:29.665Z,99159.56
2023-05-06T10:57:43.912Z,99166.38
2023-05-06T11:00:55.856Z,99159.78
2023-05-06T11:03:58.699Z,99158.69
2023-05-06T11:07:15.448Z,99148.16
2023-05-06T11:10:36.867Z,99145.56
2023-05-06T11:13:39.342Z,99136.78
2023-05-06T11:16:52.073Z,99147.78
2023-05-06T11:20:22.236Z,99139.34
2023-05-06T11:23:42.375Z,99136.69
2023-05-06T11:26:44.964Z,99132.28
2023-05-06T11:29:47.713Z,99129.97
2023-05-06T11:32:50.596Z,99125.94
2023-05-06T11:35:54.226Z,99126.53
2023-05-06T11:38:58.416Z,99117.31
2023-05-06T11:42:03.917Z,99123.56
2023-05-06T11:45:08.113Z,99124.44
2023-05-06T11:48:18.086Z,99135.00
2023-05-06T11:51:24.136Z,99133.25
2023-05-06T11:54:27.795Z,99127.50
2023-05-06T11:57:30.194Z,99135.50
2023-05-06T12:00:38.725Z,99139.25
2023-05-06T12:03:41.507Z,99136.88
2023-05-06T12:06:43.918Z,99129.91
2023-05-06T12:09:48.681Z,99131.41
2023-05-06T12:12:51.685Z,99134.47
2023-05-06T12:15:59.954Z,99139.94
2023-05-06T12:19:03.174Z,99134.81
2023-05-06T12:22:19.696Z,99134.03
2023-05-06T12:25:23.027Z,99133.22
2023-05-06T12:28:26.814Z,99138.34
2023-05-06T12:31:30.185Z,99128.97
2023-05-06T12:34:41.764Z,99133.59
2023-05-06T12:37:44.075Z,99127.88
2023-05-06T12:40:55.461Z,99125.56
2023-05-06T12:43:57.927Z,99120.78
2023-05-06T12:47:04.956Z,99114.84
2023-05-06T12:50:48.690Z,99132.88
2023-05-06T12:53:54.655Z,99125.41
2023-05-06T12:56:57.299Z,99125.28
2023-05-06T12:59:59.935Z,99122.94
2023-05-06T13:03:02.786Z,99127.38
2023-05-06T13:06:05.678Z,99129.22
2023-05-06T13:09:08.195Z,99120.78
2023-05-06T13:12:10.555Z,99114.84
2023-05-06T13:15:13.013Z,99118.84
2023-05-06T13:18:15.388Z,99122.56
2023-05-06T13:21:17.672Z,99118.94
2023-05-06T13:24:20.108Z,99118.34
2023-05-06T13:27:24.724Z,99128.09
2023-05-06T13:30:28.038Z,99130.75
2023-05-06T13:33:30.354Z,99126.91
2023-05-06T13:36:32.669Z,99124.84
2023-05-06T13:39:35.044Z,99131.50
2023-05-06T13:42:37.515Z,99133.41
2023-05-06T13:45:40.090Z,99129.94
2023-05-06T13:48:42.377Z,99125.22
2023-05-06T13:51:44.693Z,99127.00
2023-05-06T13:54:47.153Z,99135.13
2023-05-06T13:57:49.751Z,99137.72
2023-05-06T14:00:52.076Z,99138.72
2023-05-06T14:03:54.765Z,99132.44
2023-05-06T14:06:59.275Z,99135.22
2023-05-06T14:10:01.737Z,99129.16
2023-05-06T14:13:06.780Z,99130.13
2023-05-06T14:16:09.619Z,99127.06
2023-05-06T14:19:11.960Z,99123.81
2023-05-06T14:22:14.232Z,99122.13
2023-05-06T14:25:16.584Z,99129.59
2023-05-06T14:28:18.995Z,99133.31
2023-05-06T14:31:21.586Z,99128.88
2023-05-06T14:34:24.362Z,99144.00
2023-05-06T14:37:26.815Z,99147.06
2023-05-06T14:40:29.519Z,99143.03
2023-05-06T14:43:31.857Z,99142.41
2023-05-06T14:46:34.185Z,99137.28
2023-05-06T14:49:36.543Z,99134.16
2023-05-06T14:52:40.096Z,99135.34
2023-05-06T14:55:42.351Z,99130.72
2023-05-06T14:58:44.997Z,99121.81
2023-05-06T15:01:47.653Z,99132.41
2023-05-06T15:04:50.207Z,99128.75
2023-05-06T15:07:52.534Z,99120.84
2023-05-06T15:10:54.997Z,99123.44
2023-05-06T15:13:57.258Z,99113.47
2023-05-06T15:16:59.664Z,99104.13
2023-05-06T15:20:02.121Z,99111.84
2023-05-06T15:23:04.404Z,99104.72
2023-05-06T15:26:06.715Z,99105.66
2023-05-06T15:29:09.027Z,99107.34
2023-05-06T15:32:11.522Z,99106.00
2023-05-06T15:35:13.775Z,99096.22
2023-05-06T15:38:16.135Z,99088.69
2023-05-06T15:41:19.271Z,99083.00
2023-05-06T15:44:21.717Z,99086.72
2023-05-06T15:47:24.012Z,99090.13
2023-05-06T15:50:33.282Z,99093.41
2023-05-06T15:53:39.512Z,99091.19
2023-05-06T15:56:41.895Z,99096.88
2023-05-06T15:59:44.285Z,99089.94
2023-05-06T16:02:46.985Z,99091.22
2023-05-06T16:05:49.515Z,99091.13
2023-05-06T16:08:51.791Z,99088.84
2023-05-06T16:11:54.941Z,99087.94
2023-05-06T16:14:57.273Z,99093.16
2023-05-06T16:17:59.721Z,99087.94
2023-05-06T16:21:02.652Z,99084.31
2023-05-06T16:24:05.132Z,99088.06
2023-05-06T16:27:07.390Z,99092.41
2023-05-06T16:30:10.420Z,99092.47
2023-05-06T16:33:13.373Z,99092.63
2023-05-06T16:36:15.814Z,99092.97
2023-05-06T16:39:18.416Z,99100.81
2023-05-06T16:42:20.974Z,99100.41
2023-05-06T16:45:23.421Z,99106.41
2023-05-06T16:48:25.801Z,99118.03
2023-05-06T16:51:28.120Z,99109.78
2023-05-06T16:54:30.630Z,99113.41
2023-05-06T16:57:33.041Z,99112.63
2023-05-06T17:00:35.529Z,99105.97
2023-05-06T17:03:38.282Z,99107.78
2023-05-06T17:06:40.812Z,99109.38
2023-05-06T17:09:43.461Z,99106.63
2023-05-06T17:12:46.163Z,99103.56
2023-05-06T17:15:49.343Z,99099.47
2023-05-06T17:18:51.614Z,99093.75
2023-05-06T17:21:53.963Z,99093.06
2023-05-06T17:24:56.537Z,99100.94
2023-05-06T17:27:58.872Z,99087.56
2023-05-06T17:31:01.714Z,99090.63
2023-05-06T17:34:04.042Z,99093.38
2023-05-06T17:37:06.772Z,99087.19
2023-05-06T17:40:09.342Z,99085.97
2023-05-06T17:43:11.731Z,99085.06
2023-05-06T17:46:14.030Z,99089.56
2023-05-06T17:49:16.457Z,99089.94
2023-05-06T17:52:18.870Z,99089.69
2023-05-06T17:55:22.094Z,99084.72
2023-05-06T17:58:25.045Z,99088.97
2023-05-06T18:01:27.436Z,99091.50
2023-05-06T18:04:30.060Z,99090.88
2023-05-06T18:07:32.731Z,99088.19
2023-05-06T18:10:35.443Z,99094.75
2023-05-06T18:13:37.788Z,99101.72
2023-05-06T18:16:40.157Z,99107.69
2023-05-06T18:19:42.504Z,99101.00
2023-05-06T18:22:44.719Z,99112.56
2023-05-06T18:25:47.118Z,99122.22
2023-05-06T18:28:49.710Z,99117.22
2023-05-06T18:31:52.130Z,99114.06
2023-05-06T18:34:54.645Z,99122.63
2023-05-06T18:37:59.885Z,99115.47
2023-05-06T18:41:03.019Z,99118.09
2023-05-06T18:44:05.955Z,99132.09
2023-05-06T18:47:08.622Z,99129.03
2023-05-06T18:50:11.474Z,99126.25
2023-05-06T18:53:13.698Z,99121.25
2023-05-06T18:56:15.984Z,99126.41
2023-05-06T18:59:21.502Z,99122.38
2023-05-06T19:02:30.601Z,99121.91
2023-05-06T19:05:41.741Z,99123.84
2023-05-06T19:08:44.030Z,99130.56
2023-05-06T19:11:46.430Z,99130.25
2023-05-06T19:14:49.289Z,99133.25
2023-05-06T19:17:53.009Z,99135.25
2023-05-06T19:20:55.968Z,99141.66
2023-05-06T19:23:59.933Z,99142.28
2023-05-06T19:27:03.545Z,99143.56
2023-05-06T19:30:06.760Z,99135.63
2023-05-06T19:33:09.185Z,99150.25
2023-05-06T19:36:11.613Z,99149.84
2023-05-06T19:39:14.344Z,99149.22
2023-05-06T19:42:16.616Z,99153.28
2023-05-06T19:45:19.502Z,99154.50
2023-05-06T19:48:23.898Z,99151.38
2023-05-06T19:51:27.018Z,99149.16
2023-05-06T19:54:29.476Z,99150.75
2023-05-06T19:57:33.802Z,99162.75
2023-05-06T20:00:36.253Z,99161.16
2023-05-06T20:03:39.001Z,99162.63
2023-05-06T20:06:44.496Z,99162.91
2023-05-06T20:09:46.948Z,99168.44
2023-05-06T20:12:49.314Z,99164.78
2023-05-06T20:15:53.421Z,99164.72
2023-05-06T20:18:55.771Z,99165.72
2023-05-06T20:21:59.180Z,99163.47
2023-05-06T20:25:13.362Z,99165.84
2023-05-06T20:28:18.397Z,99168.56
2023-05-06T20:31:20.815Z,99159.50
2023-05-06T20:34:23.136Z,99163.47
2023-05-06T20:37:25.720Z,99153.19
2023-05-06T20:40:28.594Z,99146.84
2023-05-06T20:43:31.747Z,99163.13
2023-05-06T20:46:34.112Z,99165.41
2023-05-06T20:49:36.389Z,99158.50
2023-05-06T20:52:38.750Z,99146.00
2023-05-06T20:55:41.163Z,99149.75
2023-05-06T20:58:43.466Z,99150.66
2023-05-06T21:01:46.183Z,99156.75
2023-05-06T21:04:48.791Z,99154.69
2023-05-06T21:07:51.238Z,99145.06
2023-05-06T21:10:53.756Z,99151.44
2023-05-06T21:13:56.101Z,99154.34
2023-05-06T21:16:58.540Z,99148.59
2023-05-06T21:20:01.385Z,99154.06
2023-05-06T21:23:04.007Z,99143.56
2023-05-06T21:26:06.267Z,99140.34
2023-05-06T21:29:08.642Z,99138.66
2023-05-06T21:32:11.286Z,99138.06
2023-05-06T21:35:13.807Z,99140.84
2023-05-06T21:38:16.188Z,99131.84
2023-05-06T21:41:18.461Z,99132.25
2023-05-06T21:44:20.710Z,99130.03
2023-05-06T21:47:22.982Z,99125.25
2023-05-06T21:50:25.422Z,99124.81
2023-05-06T21:53:27.698Z,99129.63
2023-05-06T21:56:30.335Z,99133.31
2023-05-06T21:59:32.557Z,99129.38
2023-05-06T22:02:35.164Z,99130.22
2023-05-06T22:05:38.098Z,99128.97
2023-05-06T22:08:41.169Z,99133.91
2023-05-06T22:11:43.447Z,99128.81
2023-05-06T22:14:46.119Z,99125.50
2023-05-06T22:17:48.459Z,99123.44
2023-05-06T22:20:52.454Z,99125.50
2023-05-06T22:23:54.749Z,99115.69
2023-05-06T22:26:57.029Z,99125.50
2023-05-06T22:29:59.438Z,99131.03
2023-05-06T22:33:01.727Z,99128.13
2023-05-06T22:36:04.290Z,99128.88
2023-05-06T22:39:06.675Z,99121.25
2023-05-06T22:42:09.038Z,99116.91
2023-05-06T22:45:12.091Z,99126.59
2023-05-06T22:48:14.552Z,99138.84
2023-05-06T22:51:17.361Z,99138.16
2023-05-06T22:54:19.610Z,99140.56
2023-05-06T22:57:25.375Z,99150.06
2023-05-06T23:00:27.944Z,99139.81
2023-05-06T23:03:30.298Z,99149.38
2023-05-06T23:06:32.669Z,99149.28
2023-05-06T23:09:35.142Z,99151.44
2023-05-06T23:12:37.547Z,99148.50
2023-05-06T23:15:40.133Z,99143.44
2023-05-06T23:18:42.561Z,99149.41
2023-05-06T23:21:44.853Z,99149.25
2023-05-06T23:24:47.144Z,99150.97
2023-05-06T23:27:49.438Z,99161.03
2023-05-06T23:30:51.826Z,99146.59
2023-05-06T23:33:54.154Z,99147.13
2023-05-06T23:36:56.683Z,99154.38
2023-05-06T23:39:59.197Z,99146.81
2023-05-06T23:43:01.500Z,99148.03
2023-05-06T23:46:03.818Z,99150.59
2023-05-06T23:49:06.057Z,99150.72
2023-05-06T23:52:08.311Z,99143.69
2023-05-06T23:55:11.147Z,99131.06
2023-05-06T23:58:13.657Z,99153.09
